sensor_id;sensor_type;location;lat;lon;timestamp;P1;durP1;ratioP1;P2;durP2;ratioP2
50717;SDS011;60557;51.350;12.410;2023-02-03T00:01:57;6.60;;;1.67;;
50717;SDS011;60557;51.350;12.410;2023-02-03T00:04:23;2.88;;;1.65;;
50717;SDS011;60557;51.350;12.410;2023-02-03T00:06:49;6.20;;;1.30;;
50717;SDS011;60557;51.350;12.410;2023-02-03T00:09:15;4.05;;;1.25;;
50717;SDS011;60557;51.350;12.410;2023-02-03T00:11:41;2.72;;;1.65;;
50717;SDS011;60557;51.350;12.410;2023-02-03T00:14:07;8.50;;;1.70;;
50717;SDS011;60557;51.350;12.410;2023-02-03T00:16:34;7.68;;;2.42;;
50717;SDS011;60557;51.350;12.410;2023-02-03T00:19:00;4.45;;;1.50;;
50717;SDS011;60557;51.350;12.410;2023-02-03T00:21:26;5.43;;;2.10;;
50717;SDS011;60557;51.350;12.410;2023-02-03T00:23:52;5.38;;;2.08;;
50717;SDS011;60557;51.350;12.410;2023-02-03T00:26:21;4.22;;;1.90;;
50717;SDS011;60557;51.350;12.410;2023-02-03T00:28:49;5.13;;;1.80;;
50717;SDS011;60557;51.350;12.410;2023-02-03T00:31:19;8.20;;;2.08;;
50717;SDS011;60557;51.350;12.410;2023-02-03T00:33:46;4.45;;;1.65;;
50717;SDS011;60557;51.350;12.410;2023-02-03T00:36:12;7.00;;;1.38;;
50717;SDS011;60557;51.350;12.410;2023-02-03T00:38:41;9.35;;;1.30;;
50717;SDS011;60557;51.350;12.410;2023-02-03T00:41:07;2.40;;;1.02;;
50717;SDS011;60557;51.350;12.410;2023-02-03T00:43:33;1.95;;;1.05;;
50717;SDS011;60557;51.350;12.410;2023-02-03T00:45:59;2.42;;;1.10;;
50717;SDS011;60557;51.350;12.410;2023-02-03T00:48:25;1.58;;;0.63;;
50717;SDS011;60557;51.350;12.410;2023-02-03T00:50:51;1.73;;;0.90;;
50717;SDS011;60557;51.350;12.410;2023-02-03T00:53:17;5.68;;;1.23;;
50717;SDS011;60557;51.350;12.410;2023-02-03T00:55:46;4.32;;;0.95;;
50717;SDS011;60557;51.350;12.410;2023-02-03T00:58:12;1.98;;;1.10;;
50717;SDS011;60557;51.350;12.410;2023-02-03T01:00:38;3.75;;;1.20;;
50717;SDS011;60557;51.350;12.410;2023-02-03T01:03:04;2.35;;;0.90;;
50717;SDS011;60557;51.350;12.410;2023-02-03T01:05:30;2.42;;;1.10;;
50717;SDS011;60557;51.350;12.410;2023-02-03T01:07:56;1.95;;;0.82;;
50717;SDS011;60557;51.350;12.410;2023-02-03T01:10:22;3.22;;;1.08;;
50717;SDS011;60557;51.350;12.410;2023-02-03T01:12:48;2.42;;;1.05;;
50717;SDS011;60557;51.350;12.410;2023-02-03T01:15:14;1.85;;;1.08;;
50717;SDS011;60557;51.350;12.410;2023-02-03T01:17:41;4.97;;;1.60;;
50717;SDS011;60557;51.350;12.410;2023-02-03T01:20:07;3.53;;;1.85;;
50717;SDS011;60557;51.350;12.410;2023-02-03T01:22:36;5.55;;;1.52;;
50717;SDS011;60557;51.350;12.410;2023-02-03T01:25:02;5.88;;;1.52;;
50717;SDS011;60557;51.350;12.410;2023-02-03T01:27:31;6.20;;;1.40;;
50717;SDS011;60557;51.350;12.410;2023-02-03T01:29:57;4.32;;;1.73;;
50717;SDS011;60557;51.350;12.410;2023-02-03T01:32:23;3.92;;;1.70;;
50717;SDS011;60557;51.350;12.410;2023-02-03T01:34:49;5.35;;;1.13;;
50717;SDS011;60557;51.350;12.410;2023-02-03T01:37:15;5.03;;;2.72;;
50717;SDS011;60557;51.350;12.410;2023-02-03T01:39:42;4.18;;;2.35;;
50717;SDS011;60557;51.350;12.410;2023-02-03T01:42:14;3.53;;;2.10;;
50717;SDS011;60557;51.350;12.410;2023-02-03T01:44:45;6.30;;;1.40;;
50717;SDS011;60557;51.350;12.410;2023-02-03T01:49:49;6.78;;;2.83;;
50717;SDS011;60557;51.350;12.410;2023-02-03T01:52:17;4.47;;;2.47;;
50717;SDS011;60557;51.350;12.410;2023-02-03T01:54:44;3.15;;;2.30;;
50717;SDS011;60557;51.350;12.410;2023-02-03T01:57:16;4.93;;;1.90;;
50717;SDS011;60557;51.350;12.410;2023-02-03T01:59:44;6.15;;;3.00;;
50717;SDS011;60557;51.350;12.410;2023-02-03T02:02:12;3.58;;;2.45;;
50717;SDS011;60557;51.350;12.410;2023-02-03T02:05:24;4.03;;;3.28;;
50717;SDS011;60557;51.350;12.410;2023-02-03T02:07:24;6.10;;;3.45;;
50717;SDS011;60557;51.350;12.410;2023-02-03T02:09:50;5.05;;;2.80;;
50717;SDS011;60557;51.350;12.410;2023-02-03T02:12:17;10.15;;;4.15;;
50717;SDS011;60557;51.350;12.410;2023-02-03T02:14:43;5.45;;;3.67;;
50717;SDS011;60557;51.350;12.410;2023-02-03T02:17:11;7.20;;;3.35;;
50717;SDS011;60557;51.350;12.410;2023-02-03T02:22:17;6.45;;;3.60;;
50717;SDS011;60557;51.350;12.410;2023-02-03T02:38:14;8.27;;;6.00;;
50717;SDS011;60557;51.350;12.410;2023-02-03T02:45:52;13.98;;;9.40;;
50717;SDS011;60557;51.350;12.410;2023-02-03T02:48:26;10.25;;;6.93;;
50717;SDS011;60557;51.350;12.410;2023-02-03T02:50:55;11.52;;;6.07;;
50717;SDS011;60557;51.350;12.410;2023-02-03T02:53:25;11.82;;;7.13;;
50717;SDS011;60557;51.350;12.410;2023-02-03T02:55:56;16.90;;;9.05;;
50717;SDS011;60557;51.350;12.410;2023-02-03T02:58:22;9.60;;;5.93;;
50717;SDS011;60557;51.350;12.410;2023-02-03T03:00:52;10.40;;;6.43;;
50717;SDS011;60557;51.350;12.410;2023-02-03T03:03:19;20.02;;;9.98;;
50717;SDS011;60557;51.350;12.410;2023-02-03T03:06:08;18.15;;;13.27;;
50717;SDS011;60557;51.350;12.410;2023-02-03T03:10:58;15.35;;;12.18;;
50717;SDS011;60557;51.350;12.410;2023-02-03T03:13:26;16.17;;;11.70;;
50717;SDS011;60557;51.350;12.410;2023-02-03T03:15:56;15.95;;;11.48;;
50717;SDS011;60557;51.350;12.410;2023-02-03T03:18:26;18.20;;;10.83;;
50717;SDS011;60557;51.350;12.410;2023-02-03T03:20:54;18.20;;;8.02;;
50717;SDS011;60557;51.350;12.410;2023-02-03T03:23:23;16.70;;;11.68;;
50717;SDS011;60557;51.350;12.410;2023-02-03T03:25:53;11.82;;;8.57;;
50717;SDS011;60557;51.350;12.410;2023-02-03T03:28:24;12.30;;;8.63;;
50717;SDS011;60557;51.350;12.410;2023-02-03T03:30:51;14.18;;;8.88;;
50717;SDS011;60557;51.350;12.410;2023-02-03T03:33:18;14.05;;;8.38;;
50717;SDS011;60557;51.350;12.410;2023-02-03T03:35:46;10.75;;;7.68;;
50717;SDS011;60557;51.350;12.410;2023-02-03T03:38:19;13.35;;;8.93;;
50717;SDS011;60557;51.350;12.410;2023-02-03T03:40:53;21.25;;;12.75;;
50717;SDS011;60557;51.350;12.410;2023-02-03T03:43:23;16.23;;;10.93;;
50717;SDS011;60557;51.350;12.410;2023-02-03T03:45:56;11.40;;;7.40;;
50717;SDS011;60557;51.350;12.410;2023-02-03T03:50:55;11.90;;;8.52;;
50717;SDS011;60557;51.350;12.410;2023-02-03T03:53:23;11.15;;;8.38;;
50717;SDS011;60557;51.350;12.410;2023-02-03T03:55:53;15.60;;;12.18;;
50717;SDS011;60557;51.350;12.410;2023-02-03T03:58:25;17.02;;;12.48;;
50717;SDS011;60557;51.350;12.410;2023-02-03T04:00:54;16.05;;;10.10;;
50717;SDS011;60557;51.350;12.410;2023-02-03T04:03:22;13.43;;;10.82;;
50717;SDS011;60557;51.350;12.410;2023-02-03T04:05:49;16.20;;;9.70;;
50717;SDS011;60557;51.350;12.410;2023-02-03T04:08:15;9.23;;;6.53;;
50717;SDS011;60557;51.350;12.410;2023-02-03T04:10:41;12.35;;;7.88;;
50717;SDS011;60557;51.350;12.410;2023-02-03T04:13:08;13.38;;;10.55;;
50717;SDS011;60557;51.350;12.410;2023-02-03T04:15:35;16.48;;;11.65;;
50717;SDS011;60557;51.350;12.410;2023-02-03T04:18:01;11.23;;;8.68;;
50717;SDS011;60557;51.350;12.410;2023-02-03T04:20:27;13.95;;;9.48;;
50717;SDS011;60557;51.350;12.410;2023-02-03T04:22:54;14.55;;;10.95;;
50717;SDS011;60557;51.350;12.410;2023-02-03T04:25:20;15.48;;;11.00;;
50717;SDS011;60557;51.350;12.410;2023-02-03T04:27:46;13.13;;;9.95;;
50717;SDS011;60557;51.350;12.410;2023-02-03T04:30:12;15.40;;;11.27;;
50717;SDS011;60557;51.350;12.410;2023-02-03T04:32:39;13.13;;;9.20;;
50717;SDS011;60557;51.350;12.410;2023-02-03T04:35:05;14.65;;;9.38;;
50717;SDS011;60557;51.350;12.410;2023-02-03T04:37:32;12.98;;;10.23;;
50717;SDS011;60557;51.350;12.410;2023-02-03T04:40:00;11.50;;;9.48;;
50717;SDS011;60557;51.350;12.410;2023-02-03T04:42:27;12.00;;;9.55;;
50717;SDS011;60557;51.350;12.410;2023-02-03T04:45:04;12.35;;;9.07;;
50717;SDS011;60557;51.350;12.410;2023-02-03T04:47:30;15.50;;;11.20;;
50717;SDS011;60557;51.350;12.410;2023-02-03T04:50:01;10.45;;;8.30;;
50717;SDS011;60557;51.350;12.410;2023-02-03T04:52:27;15.05;;;10.20;;
50717;SDS011;60557;51.350;12.410;2023-02-03T04:54:53;12.77;;;11.02;;
50717;SDS011;60557;51.350;12.410;2023-02-03T04:57:19;12.00;;;8.82;;
50717;SDS011;60557;51.350;12.410;2023-02-03T04:59:45;16.50;;;9.85;;
50717;SDS011;60557;51.350;12.410;2023-02-03T05:02:11;9.82;;;7.10;;
50717;SDS011;60557;51.350;12.410;2023-02-03T05:04:39;12.45;;;7.07;;
50717;SDS011;60557;51.350;12.410;2023-02-03T05:07:05;12.98;;;8.77;;
50717;SDS011;60557;51.350;12.410;2023-02-03T05:09:31;11.98;;;8.52;;
50717;SDS011;60557;51.350;12.410;2023-02-03T05:11:58;13.35;;;7.38;;
50717;SDS011;60557;51.350;12.410;2023-02-03T05:14:26;14.93;;;8.13;;
50717;SDS011;60557;51.350;12.410;2023-02-03T05:16:52;12.95;;;8.55;;
50717;SDS011;60557;51.350;12.410;2023-02-03T05:19:18;14.25;;;8.35;;
50717;SDS011;60557;51.350;12.410;2023-02-03T05:21:44;10.40;;;8.05;;
50717;SDS011;60557;51.350;12.410;2023-02-03T05:24:10;15.80;;;10.10;;
50717;SDS011;60557;51.350;12.410;2023-02-03T05:26:39;12.23;;;7.80;;
50717;SDS011;60557;51.350;12.410;2023-02-03T05:29:07;16.92;;;9.63;;
50717;SDS011;60557;51.350;12.410;2023-02-03T05:31:35;12.07;;;7.53;;
50717;SDS011;60557;51.350;12.410;2023-02-03T05:34:01;9.10;;;6.80;;
50717;SDS011;60557;51.350;12.410;2023-02-03T05:36:28;9.02;;;7.10;;
50717;SDS011;60557;51.350;12.410;2023-02-03T05:38:54;8.07;;;6.00;;
50717;SDS011;60557;51.350;12.410;2023-02-03T05:41:20;8.38;;;6.72;;
50717;SDS011;60557;51.350;12.410;2023-02-03T05:44:04;10.07;;;6.40;;
50717;SDS011;60557;51.350;12.410;2023-02-03T05:46:36;6.63;;;5.93;;
50717;SDS011;60557;51.350;12.410;2023-02-03T05:49:06;9.45;;;6.35;;
50717;SDS011;60557;51.350;12.410;2023-02-03T05:51:32;6.78;;;5.43;;
50717;SDS011;60557;51.350;12.410;2023-02-03T05:53:58;6.13;;;4.85;;
50717;SDS011;60557;51.350;12.410;2023-02-03T05:56:25;7.07;;;4.75;;
50717;SDS011;60557;51.350;12.410;2023-02-03T05:58:51;6.70;;;5.03;;
50717;SDS011;60557;51.350;12.410;2023-02-03T06:01:17;9.55;;;6.43;;
50717;SDS011;60557;51.350;12.410;2023-02-03T06:03:43;7.53;;;5.20;;
50717;SDS011;60557;51.350;12.410;2023-02-03T06:06:10;5.20;;;4.03;;
50717;SDS011;60557;51.350;12.410;2023-02-03T06:08:36;7.07;;;5.22;;
50717;SDS011;60557;51.350;12.410;2023-02-03T06:11:05;6.78;;;6.07;;
50717;SDS011;60557;51.350;12.410;2023-02-03T06:13:31;5.13;;;4.30;;
50717;SDS011;60557;51.350;12.410;2023-02-03T06:15:57;7.30;;;5.05;;
50717;SDS011;60557;51.350;12.410;2023-02-03T06:18:23;5.85;;;4.20;;
50717;SDS011;60557;51.350;12.410;2023-02-03T06:20:49;6.90;;;4.35;;
50717;SDS011;60557;51.350;12.410;2023-02-03T06:23:15;7.35;;;4.82;;
50717;SDS011;60557;51.350;12.410;2023-02-03T06:25:43;8.50;;;4.82;;
50717;SDS011;60557;51.350;12.410;2023-02-03T06:28:09;7.85;;;5.25;;
50717;SDS011;60557;51.350;12.410;2023-02-03T06:30:35;7.07;;;5.82;;
50717;SDS011;60557;51.350;12.410;2023-02-03T06:33:01;9.95;;;5.18;;
50717;SDS011;60557;51.350;12.410;2023-02-03T06:35:27;7.72;;;5.55;;
50717;SDS011;60557;51.350;12.410;2023-02-03T06:37:53;9.63;;;5.32;;
50717;SDS011;60557;51.350;12.410;2023-02-03T06:40:19;7.03;;;5.22;;
50717;SDS011;60557;51.350;12.410;2023-02-03T06:42:46;6.57;;;4.45;;
50717;SDS011;60557;51.350;12.410;2023-02-03T06:45:14;6.97;;;4.40;;
50717;SDS011;60557;51.350;12.410;2023-02-03T06:47:43;6.22;;;4.03;;
50717;SDS011;60557;51.350;12.410;2023-02-03T06:50:13;9.02;;;5.78;;
50717;SDS011;60557;51.350;12.410;2023-02-03T06:52:39;6.45;;;4.70;;
50717;SDS011;60557;51.350;12.410;2023-02-03T06:55:05;5.10;;;3.45;;
50717;SDS011;60557;51.350;12.410;2023-02-03T06:57:31;9.10;;;4.45;;
50717;SDS011;60557;51.350;12.410;2023-02-03T06:59:58;5.60;;;4.70;;
50717;SDS011;60557;51.350;12.410;2023-02-03T07:02:24;9.00;;;4.50;;
50717;SDS011;60557;51.350;12.410;2023-02-03T07:04:50;6.43;;;3.95;;
50717;SDS011;60557;51.350;12.410;2023-02-03T07:07:18;7.65;;;5.20;;
50717;SDS011;60557;51.350;12.410;2023-02-03T07:09:44;14.38;;;3.88;;
50717;SDS011;60557;51.350;12.410;2023-02-03T07:12:10;5.88;;;3.80;;
50717;SDS011;60557;51.350;12.410;2023-02-03T07:14:39;5.25;;;3.75;;
50717;SDS011;60557;51.350;12.410;2023-02-03T07:17:05;6.05;;;4.20;;
50717;SDS011;60557;51.350;12.410;2023-02-03T07:19:31;7.03;;;3.88;;
50717;SDS011;60557;51.350;12.410;2023-02-03T07:21:57;5.95;;;3.92;;
50717;SDS011;60557;51.350;12.410;2023-02-03T07:24:23;5.80;;;3.00;;
50717;SDS011;60557;51.350;12.410;2023-02-03T07:26:49;6.95;;;4.22;;
50717;SDS011;60557;51.350;12.410;2023-02-03T07:29:15;4.32;;;3.42;;
50717;SDS011;60557;51.350;12.410;2023-02-03T07:31:41;6.40;;;2.58;;
50717;SDS011;60557;51.350;12.410;2023-02-03T07:34:10;4.75;;;3.25;;
50717;SDS011;60557;51.350;12.410;2023-02-03T07:36:36;5.05;;;2.63;;
50717;SDS011;60557;51.350;12.410;2023-02-03T07:39:04;3.97;;;3.03;;
50717;SDS011;60557;51.350;12.410;2023-02-03T07:41:33;4.53;;;2.75;;
50717;SDS011;60557;51.350;12.410;2023-02-03T07:43:59;5.05;;;2.78;;
50717;SDS011;60557;51.350;12.410;2023-02-03T07:46:25;6.57;;;2.63;;
50717;SDS011;60557;51.350;12.410;2023-02-03T07:48:51;12.73;;;3.47;;
50717;SDS011;60557;51.350;12.410;2023-02-03T07:51:17;5.72;;;3.40;;
50717;SDS011;60557;51.350;12.410;2023-02-03T07:53:44;5.72;;;2.72;;
50717;SDS011;60557;51.350;12.410;2023-02-03T07:56:10;5.40;;;3.17;;
50717;SDS011;60557;51.350;12.410;2023-02-03T07:58:36;4.00;;;2.83;;
50717;SDS011;60557;51.350;12.410;2023-02-03T08:01:08;6.00;;;2.95;;
50717;SDS011;60557;51.350;12.410;2023-02-03T08:03:35;4.85;;;2.85;;
50717;SDS011;60557;51.350;12.410;2023-02-03T08:06:01;4.30;;;2.90;;
50717;SDS011;60557;51.350;12.410;2023-02-03T08:08:36;6.70;;;2.92;;
50717;SDS011;60557;51.350;12.410;2023-02-03T08:11:02;7.53;;;3.08;;
50717;SDS011;60557;51.350;12.410;2023-02-03T08:13:28;4.63;;;2.60;;
50717;SDS011;60557;51.350;12.410;2023-02-03T08:15:54;10.00;;;3.60;;
50717;SDS011;60557;51.350;12.410;2023-02-03T08:18:21;4.53;;;2.75;;
50717;SDS011;60557;51.350;12.410;2023-02-03T08:20:48;9.32;;;3.80;;
50717;SDS011;60557;51.350;12.410;2023-02-03T08:23:14;4.72;;;2.80;;
50717;SDS011;60557;51.350;12.410;2023-02-03T08:25:40;6.68;;;2.63;;
50717;SDS011;60557;51.350;12.410;2023-02-03T08:28:06;3.25;;;2.17;;
50717;SDS011;60557;51.350;12.410;2023-02-03T08:30:32;5.15;;;2.88;;
50717;SDS011;60557;51.350;12.410;2023-02-03T08:32:58;5.40;;;2.45;;
50717;SDS011;60557;51.350;12.410;2023-02-03T08:35:24;4.95;;;2.40;;
50717;SDS011;60557;51.350;12.410;2023-02-03T08:37:51;2.90;;;2.22;;
50717;SDS011;60557;51.350;12.410;2023-02-03T08:40:17;4.15;;;1.88;;
50717;SDS011;60557;51.350;12.410;2023-02-03T08:42:43;4.15;;;2.50;;
50717;SDS011;60557;51.350;12.410;2023-02-03T08:45:09;3.30;;;2.10;;
50717;SDS011;60557;51.350;12.410;2023-02-03T08:47:35;6.30;;;2.97;;
50717;SDS011;60557;51.350;12.410;2023-02-03T08:50:03;7.93;;;2.80;;
50717;SDS011;60557;51.350;12.410;2023-02-03T08:52:31;7.60;;;2.55;;
50717;SDS011;60557;51.350;12.410;2023-02-03T08:54:57;6.30;;;2.78;;
50717;SDS011;60557;51.350;12.410;2023-02-03T08:57:24;4.75;;;2.45;;
50717;SDS011;60557;51.350;12.410;2023-02-03T08:59:50;3.97;;;2.53;;
50717;SDS011;60557;51.350;12.410;2023-02-03T09:02:17;5.20;;;3.17;;
50717;SDS011;60557;51.350;12.410;2023-02-03T09:04:45;3.20;;;2.05;;
50717;SDS011;60557;51.350;12.410;2023-02-03T09:07:13;5.50;;;2.67;;
50717;SDS011;60557;51.350;12.410;2023-02-03T09:09:40;8.27;;;2.15;;
50717;SDS011;60557;51.350;12.410;2023-02-03T09:12:06;4.15;;;2.03;;
50717;SDS011;60557;51.350;12.410;2023-02-03T09:14:33;3.78;;;2.00;;
50717;SDS011;60557;51.350;12.410;2023-02-03T09:17:00;9.07;;;2.20;;
50717;SDS011;60557;51.350;12.410;2023-02-03T09:19:27;5.82;;;1.88;;
50717;SDS011;60557;51.350;12.410;2023-02-03T09:21:53;5.15;;;2.03;;
50717;SDS011;60557;51.350;12.410;2023-02-03T09:24:21;3.88;;;2.17;;
50717;SDS011;60557;51.350;12.410;2023-02-03T09:26:50;4.15;;;1.60;;
50717;SDS011;60557;51.350;12.410;2023-02-03T09:29:18;4.55;;;1.63;;
50717;SDS011;60557;51.350;12.410;2023-02-03T09:31:50;2.70;;;1.38;;
50717;SDS011;60557;51.350;12.410;2023-02-03T09:34:17;3.22;;;1.33;;
50717;SDS011;60557;51.350;12.410;2023-02-03T09:36:44;4.30;;;1.50;;
50717;SDS011;60557;51.350;12.410;2023-02-03T09:39:10;3.35;;;1.67;;
50717;SDS011;60557;51.350;12.410;2023-02-03T09:47:03;5.82;;;1.60;;
50717;SDS011;60557;51.350;12.410;2023-02-03T09:54:43;5.57;;;1.90;;
50717;SDS011;60557;51.350;12.410;2023-02-03T09:57:24;5.93;;;1.42;;
50717;SDS011;60557;51.350;12.410;2023-02-03T10:00:38;3.08;;;1.75;;
50717;SDS011;60557;51.350;12.410;2023-02-03T10:07:55;5.13;;;1.42;;
50717;SDS011;60557;51.350;12.410;2023-02-03T10:13:08;6.72;;;1.38;;
50717;SDS011;60557;51.350;12.410;2023-02-03T10:18:05;4.38;;;1.45;;
50717;SDS011;60557;51.350;12.410;2023-02-03T10:20:46;8.60;;;2.22;;
50717;SDS011;60557;51.350;12.410;2023-02-03T10:23:23;2.47;;;1.30;;
50717;SDS011;60557;51.350;12.410;2023-02-03T10:25:52;2.42;;;1.13;;
50717;SDS011;60557;51.350;12.410;2023-02-03T10:28:20;4.72;;;1.27;;
50717;SDS011;60557;51.350;12.410;2023-02-03T10:30:50;4.97;;;1.50;;
50717;SDS011;60557;51.350;12.410;2023-02-03T10:33:19;4.68;;;1.27;;
50717;SDS011;60557;51.350;12.410;2023-02-03T10:36:02;2.80;;;1.27;;
50717;SDS011;60557;51.350;12.410;2023-02-03T10:38:48;5.15;;;1.75;;
50717;SDS011;60557;51.350;12.410;2023-02-03T10:41:17;5.15;;;1.27;;
50717;SDS011;60557;51.350;12.410;2023-02-03T10:43:46;2.55;;;1.23;;
50717;SDS011;60557;51.350;12.410;2023-02-03T10:48:46;3.88;;;1.30;;
50717;SDS011;60557;51.350;12.410;2023-02-03T10:53:47;2.97;;;1.48;;
50717;SDS011;60557;51.350;12.410;2023-02-03T10:56:20;8.43;;;1.50;;
50717;SDS011;60557;51.350;12.410;2023-02-03T10:58:51;4.43;;;1.42;;
50717;SDS011;60557;51.350;12.410;2023-02-03T11:01:18;2.78;;;1.33;;
50717;SDS011;60557;51.350;12.410;2023-02-03T11:06:23;1.83;;;1.05;;
50717;SDS011;60557;51.350;12.410;2023-02-03T11:08:50;3.30;;;1.02;;
50717;SDS011;60557;51.350;12.410;2023-02-03T11:11:37;3.70;;;1.35;;
50717;SDS011;60557;51.350;12.410;2023-02-03T11:16:32;2.97;;;1.13;;
50717;SDS011;60557;51.350;12.410;2023-02-03T11:19:02;4.60;;;1.20;;
50717;SDS011;60557;51.350;12.410;2023-02-03T11:21:39;6.30;;;1.50;;
50717;SDS011;60557;51.350;12.410;2023-02-03T11:26:48;3.63;;;1.80;;
50717;SDS011;60557;51.350;12.410;2023-02-03T11:31:48;4.57;;;1.23;;
50717;SDS011;60557;51.350;12.410;2023-02-03T11:36:41;2.03;;;1.52;;
50717;SDS011;60557;51.350;12.410;2023-02-03T11:39:29;2.53;;;1.50;;
50717;SDS011;60557;51.350;12.410;2023-02-03T11:41:59;3.05;;;1.73;;
50717;SDS011;60557;51.350;12.410;2023-02-03T11:44:26;4.25;;;1.65;;
50717;SDS011;60557;51.350;12.410;2023-02-03T11:46:59;2.65;;;1.67;;
50717;SDS011;60557;51.350;12.410;2023-02-03T11:49:39;2.55;;;1.70;;
50717;SDS011;60557;51.350;12.410;2023-02-03T12:12:34;2.20;;;1.50;;
50717;SDS011;60557;51.350;12.410;2023-02-03T12:20:21;2.72;;;1.42;;
50717;SDS011;60557;51.350;12.410;2023-02-03T12:30:28;4.00;;;1.45;;
50717;SDS011;60557;51.350;12.410;2023-02-03T12:32:58;3.05;;;1.15;;
50717;SDS011;60557;51.350;12.410;2023-02-03T12:35:32;1.85;;;1.13;;
50717;SDS011;60557;51.350;12.410;2023-02-03T12:45:37;1.38;;;0.65;;
50717;SDS011;60557;51.350;12.410;2023-02-03T12:48:05;2.72;;;0.90;;
50717;SDS011;60557;51.350;12.410;2023-02-03T12:50:42;3.92;;;0.93;;
50717;SDS011;60557;51.350;12.410;2023-02-03T12:55:41;1.75;;;0.50;;
50717;SDS011;60557;51.350;12.410;2023-02-03T12:58:14;4.57;;;0.70;;
50717;SDS011;60557;51.350;12.410;2023-02-03T13:05:49;3.17;;;0.93;;
50717;SDS011;60557;51.350;12.410;2023-02-03T13:08:36;2.25;;;0.70;;
50717;SDS011;60557;51.350;12.410;2023-02-03T13:11:21;3.40;;;1.08;;
50717;SDS011;60557;51.350;12.410;2023-02-03T13:13:51;2.00;;;0.50;;
50717;SDS011;60557;51.350;12.410;2023-02-03T13:16:18;2.92;;;1.08;;
50717;SDS011;60557;51.350;12.410;2023-02-03T13:18:48;6.05;;;1.15;;
50717;SDS011;60557;51.350;12.410;2023-02-03T13:21:14;5.50;;;1.13;;
50717;SDS011;60557;51.350;12.410;2023-02-03T13:23:43;10.15;;;1.77;;
50717;SDS011;60557;51.350;12.410;2023-02-03T13:44:44;9.45;;;1.98;;
50717;SDS011;60557;51.350;12.410;2023-02-03T13:47:29;11.10;;;2.00;;
50717;SDS011;60557;51.350;12.410;2023-02-03T13:49:59;10.35;;;2.40;;
50717;SDS011;60557;51.350;12.410;2023-02-03T13:52:37;14.85;;;2.70;;
50717;SDS011;60557;51.350;12.410;2023-02-03T13:55:06;7.22;;;1.52;;
50717;SDS011;60557;51.350;12.410;2023-02-03T13:57:36;8.88;;;2.08;;
50717;SDS011;60557;51.350;12.410;2023-02-03T14:00:05;12.88;;;2.75;;
50717;SDS011;60557;51.350;12.410;2023-02-03T14:02:49;2.95;;;1.08;;
50717;SDS011;60557;51.350;12.410;2023-02-03T14:08:26;7.28;;;1.35;;
50717;SDS011;60557;51.350;12.410;2023-02-03T14:11:30;13.93;;;1.90;;
50717;SDS011;60557;51.350;12.410;2023-02-03T14:13:36;21.17;;;2.13;;
50717;SDS011;60557;51.350;12.410;2023-02-03T14:16:23;12.05;;;2.10;;
50717;SDS011;60557;51.350;12.410;2023-02-03T14:18:52;15.10;;;1.88;;
50717;SDS011;60557;51.350;12.410;2023-02-03T14:21:22;14.77;;;3.47;;
50717;SDS011;60557;51.350;12.410;2023-02-03T14:23:51;6.63;;;1.40;;
50717;SDS011;60557;51.350;12.410;2023-02-03T14:26:40;12.10;;;2.47;;
50717;SDS011;60557;51.350;12.410;2023-02-03T14:29:08;9.43;;;1.73;;
50717;SDS011;60557;51.350;12.410;2023-02-03T14:31:51;6.63;;;1.98;;
50717;SDS011;60557;51.350;12.410;2023-02-03T14:34:17;7.90;;;1.83;;
50717;SDS011;60557;51.350;12.410;2023-02-03T14:36:52;13.30;;;2.72;;
50717;SDS011;60557;51.350;12.410;2023-02-03T15:00:00;14.00;;;1.88;;
50717;SDS011;60557;51.350;12.410;2023-02-03T15:05:35;12.10;;;2.17;;
50717;SDS011;60557;51.350;12.410;2023-02-03T15:10:55;14.13;;;2.30;;
50717;SDS011;60557;51.350;12.410;2023-02-03T15:13:28;9.05;;;1.80;;
50717;SDS011;60557;51.350;12.410;2023-02-03T15:16:02;20.60;;;2.58;;
50717;SDS011;60557;51.350;12.410;2023-02-03T15:21:12;20.90;;;3.22;;
50717;SDS011;60557;51.350;12.410;2023-02-03T15:23:45;13.10;;;2.38;;
50717;SDS011;60557;51.350;12.410;2023-02-03T15:26:19;14.70;;;3.97;;
50717;SDS011;60557;51.350;12.410;2023-02-03T15:28:57;16.75;;;2.15;;
50717;SDS011;60557;51.350;12.410;2023-02-03T15:33:49;13.45;;;2.10;;
50717;SDS011;60557;51.350;12.410;2023-02-03T15:36:17;15.95;;;2.65;;
50717;SDS011;60557;51.350;12.410;2023-02-03T15:38:53;18.00;;;3.35;;
50717;SDS011;60557;51.350;12.410;2023-02-03T15:41:25;17.83;;;2.90;;
50717;SDS011;60557;51.350;12.410;2023-02-03T15:43:53;17.58;;;3.10;;
50717;SDS011;60557;51.350;12.410;2023-02-03T15:54:35;23.10;;;4.85;;
50717;SDS011;60557;51.350;12.410;2023-02-03T16:03:17;10.55;;;2.70;;
50717;SDS011;60557;51.350;12.410;2023-02-03T16:15:31;14.98;;;2.65;;
50717;SDS011;60557;51.350;12.410;2023-02-03T16:18:19;14.63;;;2.53;;
50717;SDS011;60557;51.350;12.410;2023-02-03T16:20:48;13.15;;;2.97;;
50717;SDS011;60557;51.350;12.410;2023-02-03T16:23:24;19.13;;;2.95;;
50717;SDS011;60557;51.350;12.410;2023-02-03T16:26:00;19.85;;;3.10;;
50717;SDS011;60557;51.350;12.410;2023-02-03T16:28:26;18.88;;;2.95;;
50717;SDS011;60557;51.350;12.410;2023-02-03T16:33:59;9.52;;;2.53;;
50717;SDS011;60557;51.350;12.410;2023-02-03T16:36:44;11.70;;;2.60;;
50717;SDS011;60557;51.350;12.410;2023-02-03T16:39:28;16.80;;;2.65;;
50717;SDS011;60557;51.350;12.410;2023-02-03T16:42:19;11.55;;;3.05;;
50717;SDS011;60557;51.350;12.410;2023-02-03T16:45:16;16.65;;;3.28;;
50717;SDS011;60557;51.350;12.410;2023-02-03T16:48:02;17.27;;;3.20;;
50717;SDS011;60557;51.350;12.410;2023-02-03T16:50:47;10.00;;;2.78;;
50717;SDS011;60557;51.350;12.410;2023-02-03T16:53:26;18.30;;;3.92;;
50717;SDS011;60557;51.350;12.410;2023-02-03T16:55:53;10.90;;;3.03;;
50717;SDS011;60557;51.350;12.410;2023-02-03T16:58:20;16.63;;;2.72;;
50717;SDS011;60557;51.350;12.410;2023-02-03T17:00:46;18.98;;;3.15;;
50717;SDS011;60557;51.350;12.410;2023-02-03T17:03:17;19.88;;;2.83;;
50717;SDS011;60557;51.350;12.410;2023-02-03T17:05:44;9.30;;;2.40;;
50717;SDS011;60557;51.350;12.410;2023-02-03T17:08:11;13.15;;;2.67;;
50717;SDS011;60557;51.350;12.410;2023-02-03T17:10:38;14.23;;;2.55;;
50717;SDS011;60557;51.350;12.410;2023-02-03T17:13:05;15.82;;;4.60;;
50717;SDS011;60557;51.350;12.410;2023-02-03T17:15:32;19.17;;;2.70;;
50717;SDS011;60557;51.350;12.410;2023-02-03T17:17:58;14.30;;;3.67;;
50717;SDS011;60557;51.350;12.410;2023-02-03T17:20:24;15.98;;;2.33;;
50717;SDS011;60557;51.350;12.410;2023-02-03T17:22:51;11.73;;;3.42;;
50717;SDS011;60557;51.350;12.410;2023-02-03T17:25:18;15.27;;;2.80;;
50717;SDS011;60557;51.350;12.410;2023-02-03T17:27:45;14.77;;;2.67;;
50717;SDS011;60557;51.350;12.410;2023-02-03T17:30:11;14.02;;;2.35;;
50717;SDS011;60557;51.350;12.410;2023-02-03T17:32:38;17.92;;;3.00;;
50717;SDS011;60557;51.350;12.410;2023-02-03T17:35:04;13.10;;;2.35;;
50717;SDS011;60557;51.350;12.410;2023-02-03T17:37:33;15.07;;;2.30;;
50717;SDS011;60557;51.350;12.410;2023-02-03T17:39:59;6.80;;;2.50;;
50717;SDS011;60557;51.350;12.410;2023-02-03T17:42:25;15.80;;;2.35;;
50717;SDS011;60557;51.350;12.410;2023-02-03T17:44:51;15.93;;;2.67;;
50717;SDS011;60557;51.350;12.410;2023-02-03T17:47:17;15.00;;;2.47;;
50717;SDS011;60557;51.350;12.410;2023-02-03T17:49:44;18.38;;;2.92;;
50717;SDS011;60557;51.350;12.410;2023-02-03T17:52:15;24.80;;;3.08;;
50717;SDS011;60557;51.350;12.410;2023-02-03T17:54:41;19.75;;;2.80;;
50717;SDS011;60557;51.350;12.410;2023-02-03T17:57:07;14.13;;;2.05;;